Terminal Aerodrome Forecast
Issued by NWS

Home | Current Version | Previous Version | Text Only | Print | Product List | Glossary On
Versions: 1 2 3 4 5 6 7 8 9 10 11 12 13 14 15
000
FTUS46 KPDT 271700
TAFALW
TAF
KALW 271720Z 2718/2818 19011KT P6SM BKN035 OVC050
     FM272000 20013KT 5SM -RA BR SCT015 OVC025
     FM280400 20014G20KT P6SM BKN030 BKN090
     FM280800 21011KT 5SM -RASN SCT015 OVC025=

USA.gov is the U.S. government's official web portal to all federal, state and local government web resources and services.